createdAt,value
2022-10-22T00:00:39.635Z,100353.97
2022-10-22T00:03:42.592Z,100360.22
2022-10-22T00:06:45.364Z,100362.25
2022-10-22T00:09:48.388Z,100348.81
2022-10-22T00:12:51.052Z,100362.56
2022-10-22T00:15:53.965Z,100358.19
2022-10-22T00:18:56.610Z,100354.66
2022-10-22T00:21:59.663Z,100365.75
2022-10-22T00:25:02.273Z,100363.59
2022-10-22T00:28:05.331Z,100370.47
2022-10-22T00:31:07.995Z,100359.19
2022-10-22T00:34:10.934Z,100360.88
2022-10-22T00:37:13.582Z,100352.41
2022-10-22T00:40:17.868Z,100355.47
2022-10-22T00:43:20.787Z,100372.09
2022-10-22T00:46:23.839Z,100375.38
2022-10-22T00:49:26.435Z,100360.66
2022-10-22T00:52:29.734Z,100359.81
2022-10-22T00:55:33.608Z,100356.78
2022-10-22T00:58:40.875Z,100339.81
2022-10-22T01:01:46.613Z,100339.41
2022-10-22T01:04:49.758Z,100335.09
2022-10-22T01:07:53.839Z,100337.09
2022-10-22T01:11:13.777Z,100338.59
2022-10-22T01:14:22.204Z,100325.66
2022-10-22T01:17:40.391Z,100326.94
2022-10-22T01:20:46.164Z,100321.22
2022-10-22T01:23:59.184Z,100313.22
2022-10-22T01:27:24.399Z,100302.56
2022-10-22T01:30:27.743Z,100297.16
2022-10-22T01:33:31.561Z,100296.03
2022-10-22T01:36:35.931Z,100306.34
2022-10-22T01:39:40.602Z,100303.00
2022-10-22T01:42:43.557Z,100300.59
2022-10-22T01:45:50.946Z,100306.44
2022-10-22T01:49:02.620Z,100328.69
2022-10-22T01:52:40.416Z,100336.59
2022-10-22T01:55:51.654Z,100327.88
2022-10-22T01:59:33.758Z,100333.81
2022-10-22T02:02:56.671Z,100319.03
2022-10-22T02:06:05.961Z,100311.41
2022-10-22T02:09:10.243Z,100305.81
2022-10-22T02:12:14.281Z,100299.50
2022-10-22T02:15:20.600Z,100317.31
2022-10-22T02:18:28.316Z,100314.22
2022-10-22T02:21:32.153Z,100305.22
2022-10-22T02:24:35.124Z,100310.78
2022-10-22T02:27:49.349Z,100323.41
2022-10-22T02:30:55.747Z,100325.78
2022-10-22T02:34:03.244Z,100327.03
2022-10-22T02:37:08.227Z,100323.59
2022-10-22T02:40:11.235Z,100314.94
2022-10-22T02:43:14.300Z,100328.78
2022-10-22T02:46:17.210Z,100315.97
2022-10-22T02:49:20.167Z,100315.00
2022-10-22T02:52:22.762Z,100313.47
2022-10-22T02:55:25.595Z,100318.72
2022-10-22T02:58:28.363Z,100311.41
2022-10-22T03:01:31.287Z,100314.44
2022-10-22T03:04:34.259Z,100304.31
2022-10-22T03:07:37.113Z,100293.03
2022-10-22T03:10:39.772Z,100292.28
2022-10-22T03:13:42.666Z,100281.88
2022-10-22T03:16:46.605Z,100274.72
2022-10-22T03:19:49.485Z,100260.22
2022-10-22T03:22:52.914Z,100241.59
2022-10-22T03:25:55.922Z,100228.50
2022-10-22T03:29:00.989Z,100230.75
2022-10-22T03:32:04.038Z,100236.84
2022-10-22T03:35:06.977Z,100240.00
2022-10-22T03:38:10.058Z,100258.06
2022-10-22T03:41:12.798Z,100259.84
2022-10-22T03:44:17.690Z,100272.66
2022-10-22T03:47:20.340Z,100275.72
2022-10-22T03:50:23.278Z,100266.22
2022-10-22T03:53:25.812Z,100258.19
2022-10-22T03:56:28.805Z,100272.59
2022-10-22T03:59:39.430Z,100274.13
2022-10-22T04:02:42.541Z,100284.47
2022-10-22T04:05:45.425Z,100295.28
2022-10-22T04:08:57.001Z,100296.34
2022-10-22T04:12:00.288Z,100309.31
2022-10-22T04:15:02.909Z,100311.22
2022-10-22T04:18:07.985Z,100319.16
2022-10-22T04:21:12.290Z,100307.94
2022-10-22T04:24:15.224Z,100282.75
2022-10-22T04:27:17.819Z,100280.69
2022-10-22T04:30:20.741Z,100272.94
2022-10-22T04:33:23.865Z,100272.03
2022-10-22T04:36:29.638Z,100268.03
2022-10-22T04:39:32.285Z,100253.06
2022-10-22T04:42:35.269Z,100255.13
2022-10-22T04:45:37.835Z,100243.38
2022-10-22T04:48:42.462Z,100231.31
2022-10-22T04:51:45.078Z,100237.00
2022-10-22T04:54:50.347Z,100242.59
2022-10-22T04:57:52.952Z,100250.94
2022-10-22T05:00:55.814Z,100240.41
2022-10-22T05:04:02.503Z,100242.38
2022-10-22T05:07:05.414Z,100242.78
2022-10-22T05:10:08.561Z,100242.09
2022-10-22T05:13:13.767Z,100245.47
2022-10-22T05:16:16.493Z,100242.91
2022-10-22T05:19:31.019Z,100241.81
2022-10-22T05:22:35.154Z,100233.59
2022-10-22T05:25:39.869Z,100239.94
2022-10-22T05:28:43.684Z,100251.44
2022-10-22T05:31:47.002Z,100254.19
2022-10-22T05:34:50.672Z,100260.72
2022-10-22T05:37:53.605Z,100264.84
2022-10-22T05:41:00.987Z,100259.06
2022-10-22T05:44:05.360Z,100260.41
2022-10-22T05:47:10.402Z,100270.41
2022-10-22T05:50:13.755Z,100281.72
2022-10-22T05:53:19.661Z,100284.03
2022-10-22T05:56:23.782Z,100278.06
2022-10-22T05:59:26.875Z,100277.09
2022-10-22T06:02:30.907Z,100277.31
2022-10-22T06:05:42.103Z,100280.53
2022-10-22T06:08:48.702Z,100276.03
2022-10-22T06:11:53.525Z,100276.94
2022-10-22T06:14:56.813Z,100286.72
2022-10-22T06:18:01.128Z,100284.00
2022-10-22T06:21:13.654Z,100272.53
2022-10-22T06:24:17.223Z,100284.28
2022-10-22T06:27:20.035Z,100284.47
2022-10-22T06:30:23.173Z,100282.81
2022-10-22T06:33:26.758Z,100280.03
2022-10-22T06:36:29.760Z,100284.22
2022-10-22T06:39:32.421Z,100293.94
2022-10-22T06:42:36.419Z,100294.56
2022-10-22T06:45:39.121Z,100299.09
2022-10-22T06:48:43.229Z,100303.62
2022-10-22T06:51:49.471Z,100281.59
2022-10-22T06:54:52.449Z,100285.22
2022-10-22T06:57:58.221Z,100291.00
2022-10-22T07:01:22.930Z,100279.28
2022-10-22T07:04:25.696Z,100291.97
2022-10-22T07:07:28.681Z,100286.94
2022-10-22T07:10:31.689Z,100281.56
2022-10-22T07:13:35.431Z,100282.22
2022-10-22T07:16:38.112Z,100277.94
2022-10-22T07:19:41.252Z,100274.66
2022-10-22T07:22:44.008Z,100264.78
2022-10-22T07:25:48.859Z,100268.38
2022-10-22T07:28:52.000Z,100265.44
2022-10-22T07:31:55.009Z,100269.66
2022-10-22T07:34:59.725Z,100268.34
2022-10-22T07:38:09.767Z,100270.13
2022-10-22T07:41:14.581Z,100264.34
2022-10-22T07:44:18.038Z,100260.84
2022-10-22T07:47:22.323Z,100267.72
2022-10-22T07:50:28.472Z,100265.00
2022-10-22T07:53:33.285Z,100253.72
2022-10-22T07:56:40.358Z,100250.75
2022-10-22T07:59:45.181Z,100246.97
2022-10-22T08:02:49.101Z,100256.81
2022-10-22T08:05:52.389Z,100251.66
2022-10-22T08:08:55.011Z,100252.09
2022-10-22T08:11:58.117Z,100266.91
2022-10-22T08:15:01.103Z,100263.25
2022-10-22T08:18:05.814Z,100272.88
2022-10-22T08:21:08.555Z,100284.47
2022-10-22T08:24:12.741Z,100285.31
2022-10-22T08:27:15.411Z,100283.78
2022-10-22T08:30:18.874Z,100297.44
2022-10-22T08:33:21.801Z,100303.06
2022-10-22T08:36:24.793Z,100303.88
2022-10-22T08:39:28.207Z,100288.69
2022-10-22T08:42:55.858Z,100274.28
2022-10-22T08:46:19.712Z,100271.34
2022-10-22T08:49:36.102Z,100276.41
2022-10-22T08:52:45.213Z,100285.91
2022-10-22T08:55:52.914Z,100284.25
2022-10-22T08:59:23.487Z,100285.53
2022-10-22T09:02:48.368Z,100274.37
2022-10-22T09:06:15.381Z,100284.13
2022-10-22T09:09:19.953Z,100289.59
2022-10-22T09:12:25.019Z,100300.16
2022-10-22T09:15:28.424Z,100292.00
2022-10-22T09:19:05.384Z,100296.56
2022-10-22T09:22:29.296Z,100297.19
2022-10-22T09:25:36.587Z,100294.78
2022-10-22T09:28:39.793Z,100300.00
2022-10-22T09:31:42.389Z,100307.41
2022-10-22T09:34:49.244Z,100297.38
2022-10-22T09:37:56.569Z,100302.94
2022-10-22T09:41:04.164Z,100304.69
2022-10-22T09:44:07.560Z,100298.56
2022-10-22T09:48:00.618Z,100305.44
2022-10-22T09:51:07.169Z,100297.41
2022-10-22T09:54:37.455Z,100298.03
2022-10-22T09:57:43.682Z,100296.47
2022-10-22T10:00:53.132Z,100304.44
2022-10-22T10:04:09.838Z,100287.78
2022-10-22T10:07:19.072Z,100286.78
2022-10-22T10:10:28.119Z,100293.94
2022-10-22T10:14:10.609Z,100299.09
2022-10-22T10:17:28.355Z,100299.47
2022-10-22T10:20:50.802Z,100305.03
2022-10-22T10:24:17.149Z,100308.00
2022-10-22T10:27:38.355Z,100319.59
2022-10-22T10:31:15.565Z,100320.62
2022-10-22T10:34:36.217Z,100308.41
2022-10-22T10:37:52.594Z,100307.94
2022-10-22T10:41:05.709Z,100319.22
2022-10-22T10:44:34.841Z,100318.00
2022-10-22T10:47:55.688Z,100308.22
2022-10-22T10:51:20.406Z,100317.47
2022-10-22T10:54:35.990Z,100325.00
2022-10-22T10:58:01.938Z,100331.69
2022-10-22T11:01:20.128Z,100322.19
2022-10-22T11:04:42.270Z,100331.78
2022-10-22T11:08:26.785Z,100326.62
2022-10-22T11:11:32.204Z,100333.72
2022-10-22T11:14:42.852Z,100338.16
2022-10-22T11:17:48.968Z,100338.28
2022-10-22T11:21:04.034Z,100326.72
2022-10-22T11:24:31.124Z,100331.94
2022-10-22T11:27:45.033Z,100332.03
2022-10-22T11:31:03.134Z,100336.06
2022-10-22T11:34:33.165Z,100340.28
2022-10-22T11:37:39.508Z,100345.56
2022-10-22T11:40:50.471Z,100344.34
2022-10-22T11:43:56.307Z,100368.09
2022-10-22T11:47:19.534Z,100364.94
2022-10-22T11:50:25.890Z,100363.75
2022-10-22T11:53:33.476Z,100363.75
2022-10-22T11:56:39.923Z,100359.00
2022-10-22T12:00:00.291Z,100359.84
2022-10-22T12:03:32.561Z,100358.22
2022-10-22T12:06:55.619Z,100351.06
2022-10-22T12:09:58.750Z,100354.25
2022-10-22T12:13:12.106Z,100348.25
2022-10-22T12:16:14.989Z,100350.66
2022-10-22T12:19:27.845Z,100363.91
2022-10-22T12:22:33.330Z,100358.69
2022-10-22T12:25:36.819Z,100367.88
2022-10-22T12:28:41.126Z,100383.47
2022-10-22T12:31:45.936Z,100395.84
2022-10-22T12:34:51.447Z,100397.03
2022-10-22T12:38:00.796Z,100389.03
2022-10-22T12:41:05.659Z,100379.06
2022-10-22T12:44:13.189Z,100379.84
2022-10-22T12:47:18.306Z,100388.25
2022-10-22T12:50:33.362Z,100391.03
2022-10-22T12:53:39.447Z,100388.66
2022-10-22T12:56:42.514Z,100398.19
2022-10-22T12:59:49.790Z,100403.72
2022-10-22T13:02:54.047Z,100398.16
2022-10-22T13:05:57.700Z,100408.91
2022-10-22T13:09:00.748Z,100405.69
2022-10-22T13:12:05.934Z,100404.84
2022-10-22T13:15:21.861Z,100396.50
2022-10-22T13:18:45.073Z,100392.44
2022-10-22T13:21:49.116Z,100398.78
2022-10-22T13:24:52.407Z,100402.38
2022-10-22T13:28:01.544Z,100406.75
2022-10-22T13:31:19.914Z,100401.94
2022-10-22T13:34:25.586Z,100411.47
2022-10-22T13:37:30.331Z,100417.03
2022-10-22T13:40:33.247Z,100419.75
2022-10-22T13:43:35.840Z,100428.09
2022-10-22T13:46:42.967Z,100431.25
2022-10-22T13:49:47.014Z,100430.88
2022-10-22T13:52:53.412Z,100429.63
2022-10-22T13:55:56.259Z,100426.03
2022-10-22T13:58:59.211Z,100417.59
2022-10-22T14:02:06.536Z,100425.12
2022-10-22T14:05:11.416Z,100430.69
2022-10-22T14:08:17.413Z,100431.03
2022-10-22T14:11:20.384Z,100431.41
2022-10-22T14:14:22.943Z,100431.88
2022-10-22T14:17:26.327Z,100425.53
2022-10-22T14:20:31.794Z,100416.81
2022-10-22T14:23:36.503Z,100412.91
2022-10-22T14:26:39.123Z,100401.38
2022-10-22T14:29:43.171Z,100403.44
2022-10-22T14:32:46.543Z,100413.03
2022-10-22T14:35:50.126Z,100414.53
2022-10-22T14:38:52.743Z,100404.97
2022-10-22T14:41:55.685Z,100414.91
2022-10-22T14:44:58.306Z,100411.28
2022-10-22T14:48:02.248Z,100401.75
2022-10-22T14:51:05.216Z,100396.94
2022-10-22T14:54:08.183Z,100409.56
2022-10-22T14:57:11.748Z,100418.28
2022-10-22T15:00:20.649Z,100417.06
2022-10-22T15:03:23.311Z,100418.16
2022-10-22T15:06:26.209Z,100419.34
2022-10-22T15:09:29.315Z,100414.09
2022-10-22T15:12:32.353Z,100412.50
2022-10-22T15:15:39.439Z,100415.19
2022-10-22T15:18:43.026Z,100419.44
2022-10-22T15:21:45.823Z,100427.28
2022-10-22T15:24:49.849Z,100428.78
2022-10-22T15:27:54.876Z,100430.69
2022-10-22T15:31:02.417Z,100446.91
2022-10-22T15:34:05.196Z,100446.00
2022-10-22T15:37:12.654Z,100448.34
2022-10-22T15:40:15.352Z,100442.66
2022-10-22T15:43:19.043Z,100451.34
2022-10-22T15:46:22.164Z,100458.41
2022-10-22T15:49:27.657Z,100464.72
2022-10-22T15:52:31.840Z,100481.28
2022-10-22T15:55:34.800Z,100487.56
2022-10-22T15:58:37.403Z,100490.47
2022-10-22T16:01:41.334Z,100486.59
2022-10-22T16:04:44.270Z,100497.72
2022-10-22T16:07:47.221Z,100496.53
2022-10-22T16:10:50.235Z,100502.91
2022-10-22T16:13:57.962Z,100510.94
2022-10-22T16:17:01.836Z,100514.06
2022-10-22T16:20:05.768Z,100511.78
2022-10-22T16:23:09.353Z,100510.97
2022-10-22T16:26:13.364Z,100510.56
2022-10-22T16:29:17.227Z,100535.50
2022-10-22T16:32:19.905Z,100537.47
2022-10-22T16:35:22.774Z,100541.19
2022-10-22T16:38:26.100Z,100541.34
2022-10-22T16:41:35.300Z,100541.97
2022-10-22T16:44:37.931Z,100542.75
2022-10-22T16:47:43.410Z,100534.56
2022-10-22T16:50:46.785Z,100532.97
2022-10-22T16:53:52.736Z,100531.13
2022-10-22T16:56:55.500Z,100538.13
2022-10-22T16:59:58.844Z,100535.50
2022-10-22T17:03:01.672Z,100541.44
2022-10-22T17:06:05.680Z,100546.81
2022-10-22T17:09:08.710Z,100550.38
2022-10-22T17:12:13.316Z,100547.03
2022-10-22T17:15:16.197Z,100551.00
2022-10-22T17:18:19.653Z,100540.38
2022-10-22T17:21:23.245Z,100536.47
2022-10-22T17:24:26.619Z,100559.53
2022-10-22T17:27:29.603Z,100550.62
2022-10-22T17:30:33.046Z,100561.72
2022-10-22T17:33:44.059Z,100562.53
2022-10-22T17:36:50.115Z,100558.53
2022-10-22T17:39:55.571Z,100561.63
2022-10-22T17:43:01.953Z,100563.28
2022-10-22T17:46:15.103Z,100574.50
2022-10-22T17:49:23.441Z,100578.56
2022-10-22T17:52:28.277Z,100596.22
2022-10-22T17:55:36.307Z,100600.59
2022-10-22T17:58:41.371Z,100604.62
2022-10-22T18:01:49.086Z,100588.88
2022-10-22T18:04:53.299Z,100587.72
2022-10-22T18:07:57.403Z,100602.53
2022-10-22T18:11:01.115Z,100609.38
2022-10-22T18:14:05.830Z,100628.72
2022-10-22T18:17:09.273Z,100633.63
2022-10-22T18:20:12.910Z,100604.81
2022-10-22T18:23:16.363Z,100607.41
2022-10-22T18:26:25.882Z,100618.28
2022-10-22T18:29:30.521Z,100618.31
2022-10-22T18:32:34.703Z,100617.34
2022-10-22T18:35:39.170Z,100630.00
2022-10-22T18:38:45.406Z,100636.06
2022-10-22T18:42:00.190Z,100630.53
2022-10-22T18:45:04.168Z,100631.59
2022-10-22T18:48:07.829Z,100630.72
2022-10-22T18:51:11.562Z,100622.56
2022-10-22T18:54:23.815Z,100629.16
2022-10-22T18:57:27.167Z,100641.13
2022-10-22T19:00:31.957Z,100633.41
2022-10-22T19:03:35.299Z,100637.78
2022-10-22T19:06:42.970Z,100635.88
2022-10-22T19:09:48.063Z,100652.09
2022-10-22T19:12:51.116Z,100651.84
2022-10-22T19:15:53.706Z,100664.25
2022-10-22T19:19:04.446Z,100665.50
2022-10-22T19:22:07.331Z,100671.81
2022-10-22T19:25:12.057Z,100665.94
2022-10-22T19:28:15.945Z,100660.09
2022-10-22T19:31:22.534Z,100662.41
2022-10-22T19:34:25.322Z,100671.44
2022-10-22T19:37:28.740Z,100689.13
2022-10-22T19:40:31.676Z,100680.94
2022-10-22T19:43:35.014Z,100688.91
2022-10-22T19:46:37.918Z,100695.19
2022-10-22T19:49:43.030Z,100690.28
2022-10-22T19:52:45.957Z,100703.22
2022-10-22T19:55:48.948Z,100699.09
2022-10-22T19:58:51.756Z,100696.06
2022-10-22T20:01:55.343Z,100689.97
2022-10-22T20:05:00.725Z,100701.78
2022-10-22T20:08:03.447Z,100698.84
2022-10-22T20:11:13.655Z,100703.41
2022-10-22T20:14:16.782Z,100719.38
2022-10-22T20:17:20.267Z,100704.53
2022-10-22T20:20:26.285Z,100711.72
2022-10-22T20:23:29.514Z,100708.00
2022-10-22T20:26:33.529Z,100710.94
2022-10-22T20:29:36.981Z,100710.22
2022-10-22T20:32:40.412Z,100714.69
2022-10-22T20:35:45.451Z,100724.78
2022-10-22T20:38:49.438Z,100731.87
2022-10-22T20:41:52.816Z,100722.50
2022-10-22T20:44:55.418Z,100726.59
2022-10-22T20:48:02.562Z,100714.66
2022-10-22T20:51:05.733Z,100720.06
2022-10-22T20:54:09.906Z,100732.09
2022-10-22T20:57:14.554Z,100724.66
2022-10-22T21:00:17.679Z,100727.47
2022-10-22T21:03:23.662Z,100729.63
2022-10-22T21:06:26.747Z,100729.44
2022-10-22T21:09:29.521Z,100734.38
2022-10-22T21:12:32.847Z,100735.78
2022-10-22T21:15:35.493Z,100738.19
2022-10-22T21:18:38.782Z,100739.50
2022-10-22T21:21:41.528Z,100736.00
2022-10-22T21:24:44.478Z,100736.28
2022-10-22T21:27:47.045Z,100729.25
2022-10-22T21:30:49.962Z,100734.44
2022-10-22T21:33:54.009Z,100739.28
2022-10-22T21:36:56.866Z,100731.31
2022-10-22T21:40:00.814Z,100728.19
2022-10-22T21:43:03.801Z,100725.28
2022-10-22T21:46:08.274Z,100731.63
2022-10-22T21:49:12.370Z,100736.72
2022-10-22T21:52:14.973Z,100748.66
2022-10-22T21:55:17.893Z,100745.72
2022-10-22T21:58:20.494Z,100745.06
2022-10-22T22:01:23.480Z,100749.84
2022-10-22T22:04:27.243Z,100751.09
2022-10-22T22:07:29.761Z,100745.16
2022-10-22T22:10:32.745Z,100744.66
2022-10-22T22:13:35.785Z,100765.22
2022-10-22T22:16:39.387Z,100761.00
2022-10-22T22:19:42.272Z,100775.44
2022-10-22T22:22:48.022Z,100778.38
2022-10-22T22:25:50.687Z,100781.50
2022-10-22T22:28:53.759Z,100770.56
2022-10-22T22:31:56.563Z,100775.81
2022-10-22T22:34:59.449Z,100784.59
2022-10-22T22:38:02.203Z,100792.84
2022-10-22T22:41:05.593Z,100793.53
2022-10-22T22:44:08.613Z,100798.41
2022-10-22T22:47:11.464Z,100793.37
2022-10-22T22:50:14.034Z,100788.06
2022-10-22T22:53:16.917Z,100792.53
2022-10-22T22:56:24.687Z,100793.22
2022-10-22T22:59:29.003Z,100790.91
2022-10-22T23:02:32.118Z,100797.84
2022-10-22T23:05:37.767Z,100789.22
2022-10-22T23:08:40.645Z,100796.44
2022-10-22T23:11:45.385Z,100798.06
2022-10-22T23:14:51.351Z,100798.78
2022-10-22T23:17:54.286Z,100787.97
2022-10-22T23:20:56.849Z,100794.16
2022-10-22T23:24:02.118Z,100792.78
2022-10-22T23:27:05.469Z,100796.13
2022-10-22T23:30:09.263Z,100798.97
2022-10-22T23:33:12.421Z,100813.06
2022-10-22T23:36:15.662Z,100800.53
2022-10-22T23:39:20.921Z,100799.22
2022-10-22T23:42:23.907Z,100797.16
2022-10-22T23:45:26.558Z,100797.28
2022-10-22T23:48:29.581Z,100802.25
2022-10-22T23:51:32.334Z,100811.75
2022-10-22T23:54:35.590Z,100819.28
2022-10-22T23:57:38.285Z,100814.78
